Time;durP1;ratioP1;P1;durP2;ratioP2;P2;SDS_P1;SDS_P2;PMS_P1;PMS_P2;Temp;Humidity;BMP_temperature;BMP_pressure;BME280_temperature;BME280_humidity;BME280_pressure;Samples;Min_cycle;Max_cycle;Signal;HPM_P1;HPM_P2
2022/07/19 00:00:24;;;;;;;2.42;1.55;;;24.70;49.40;;;;;;5078579;28;20024;-75
2022/07/19 00:02:51;;;;;;;1.85;1.48;;;24.70;49.50;;;;;;5078531;28;20024;-76
2022/07/19 00:05:17;;;;;;;1.75;1.60;;;24.60;49.50;;;;;;5096892;28;20111;-75
2022/07/19 00:07:42;;;;;;;1.40;1.30;;;24.60;49.70;;;;;;5078716;28;20490;-75
2022/07/19 00:10:10;;;;;;;1.45;1.35;;;24.60;49.70;;;;;;5078636;28;20071;-75
2022/07/19 00:12:37;;;;;;;1.80;1.52;;;24.60;49.70;;;;;;5078501;28;20016;-75
2022/07/19 00:15:05;;;;;;;1.80;1.55;;;24.60;49.80;;;;;;5096248;28;20024;-75
2022/07/19 00:17:30;;;;;;;1.88;1.40;;;24.50;49.90;;;;;;5096073;28;20052;-75
2022/07/19 00:19:56;;;;;;;1.60;1.50;;;24.50;50.00;;;;;;5078510;28;20020;-75
2022/07/19 00:22:21;;;;;;;2.63;1.58;;;24.50;50.10;;;;;;5097173;28;20421;-75
2022/07/19 00:24:47;;;;;;;1.70;1.60;;;24.50;50.20;;;;;;5096647;28;20040;-76
2022/07/19 00:27:13;;;;;;;1.98;1.65;;;24.50;50.20;;;;;;5096578;28;20518;-76
2022/07/19 00:29:38;;;;;;;2.25;1.50;;;24.50;50.30;;;;;;5078098;28;20016;-75
2022/07/19 00:32:04;;;;;;;2.10;1.90;;;24.50;50.50;;;;;;5078121;28;20028;-76
2022/07/19 00:34:30;;;;;;;2.63;1.65;;;24.40;50.50;;;;;;5096378;28;20482;-75
2022/07/19 00:36:56;;;;;;;2.60;1.70;;;24.40;50.60;;;;;;5077947;28;20056;-76
2022/07/19 00:39:21;;;;;;;2.28;1.70;;;24.40;50.70;;;;;;5077839;28;20399;-75
2022/07/19 00:41:47;;;;;;;2.20;1.67;;;24.40;50.70;;;;;;5095920;28;20145;-76
2022/07/19 00:44:12;;;;;;;2.88;1.60;;;24.40;50.80;;;;;;5077793;28;20016;-75
2022/07/19 00:46:38;;;;;;;2.42;1.80;;;24.40;50.90;;;;;;5096141;28;20027;-76
2022/07/19 00:49:04;;;;;;;1.70;1.52;;;24.30;51.00;;;;;;5096415;28;20027;-76
2022/07/19 00:51:34;;;;;;;1.50;1.40;;;24.30;51.10;;;;;;5096340;28;20020;-75
2022/07/19 00:54:01;;;;;;;1.80;1.70;;;24.30;51.20;;;;;;5094563;28;20533;-75
2022/07/19 00:56:30;;;;;;;2.00;1.80;;;24.30;51.30;;;;;;5095691;28;20024;-75
2022/07/19 00:58:56;;;;;;;2.72;1.52;;;24.20;51.40;;;;;;5094324;28;20028;-76
2022/07/19 01:01:22;;;;;;;3.88;1.65;;;24.20;51.50;;;;;;5095567;28;20016;-76
2022/07/19 01:03:48;;;;;;;1.85;1.75;;;24.20;51.50;;;;;;5095323;28;20066;-76
2022/07/19 01:06:14;;;;;;;1.58;1.48;;;24.20;51.60;;;;;;5077365;28;20027;-76
2022/07/19 01:08:40;;;;;;;2.10;1.90;;;24.20;51.70;;;;;;5093863;28;20392;-76
2022/07/19 01:11:06;;;;;;;3.47;1.85;;;24.10;51.80;;;;;;5095193;28;20023;-76
2022/07/19 01:13:33;;;;;;;3.35;1.80;;;24.10;51.80;;;;;;5077091;28;20020;-75
2022/07/19 01:15:59;;;;;;;2.00;1.80;;;24.10;51.90;;;;;;5093768;28;20020;-76
2022/07/19 01:18:24;;;;;;;1.90;1.80;;;24.10;51.90;;;;;;5076838;28;20039;-76
2022/07/19 01:20:51;;;;;;;2.38;1.60;;;24.10;52.00;;;;;;5077161;28;20111;-76
2022/07/19 01:23:17;;;;;;;3.67;1.80;;;24.00;52.00;;;;;;5093959;28;20464;-76
2022/07/19 01:25:42;;;;;;;2.25;1.80;;;24.00;52.20;;;;;;5095066;28;20054;-74
2022/07/19 01:28:08;;;;;;;1.77;1.60;;;23.90;52.20;;;;;;5076978;28;20020;-76
2022/07/19 01:30:34;;;;;;;2.03;1.58;;;23.90;52.20;;;;;;5076825;28;20104;-76
2022/07/19 01:33:01;;;;;;;2.05;1.65;;;23.80;52.30;;;;;;5095678;28;20056;-76
2022/07/19 01:35:26;;;;;;;3.17;1.85;;;23.80;52.40;;;;;;5076332;28;20031;-76
2022/07/19 01:37:52;;;;;;;2.53;1.77;;;23.80;52.60;;;;;;5094898;28;20020;-76
2022/07/19 01:40:18;;;;;;;2.10;1.50;;;23.70;52.70;;;;;;5094919;28;20062;-76
2022/07/19 01:42:46;;;;;;;1.85;1.40;;;23.70;52.70;;;;;;5076645;28;20500;-75
2022/07/19 01:45:12;;;;;;;4.03;1.70;;;23.70;52.80;;;;;;5093471;28;20062;-76
2022/07/19 01:47:40;;;;;;;2.25;1.45;;;23.60;52.90;;;;;;5093361;28;20030;-76
2022/07/19 01:50:08;;;;;;;1.90;1.60;;;23.60;53.00;;;;;;5094898;28;20024;-76
2022/07/19 01:52:33;;;;;;;2.38;1.70;;;23.50;53.10;;;;;;5093375;28;20024;-76
2022/07/19 01:54:59;;;;;;;2.00;1.60;;;23.50;53.20;;;;;;5094646;28;20479;-76
2022/07/19 01:57:25;;;;;;;3.53;1.70;;;23.50;53.30;;;;;;5076294;28;20027;-76
2022/07/19 01:59:51;;;;;;;1.75;1.58;;;23.40;53.40;;;;;;5076289;28;20474;-76
2022/07/19 02:02:16;;;;;;;1.95;1.70;;;23.40;53.40;;;;;;5094608;28;20056;-76
2022/07/19 02:04:42;;;;;;;3.13;1.65;;;23.40;53.40;;;;;;5094399;28;20383;-76
2022/07/19 02:07:07;;;;;;;2.20;1.65;;;23.40;53.40;;;;;;5076181;28;20475;-76
2022/07/19 02:09:33;;;;;;;3.25;1.70;;;23.40;53.50;;;;;;5093709;28;20060;-75
2022/07/19 02:11:58;;;;;;;2.00;1.60;;;23.30;53.40;;;;;;5094185;28;20442;-75
2022/07/19 02:14:25;;;;;;;4.07;1.67;;;23.40;53.40;;;;;;5093780;28;20032;-75
2022/07/19 02:16:51;;;;;;;2.45;1.80;;;23.40;53.30;;;;;;5094078;28;20020;-75
2022/07/19 02:19:16;;;;;;;1.90;1.70;;;23.40;53.20;;;;;;5075857;28;20047;-76
2022/07/19 02:21:42;;;;;;;1.58;1.48;;;23.40;53.10;;;;;;5093944;28;20024;-76
2022/07/19 02:24:08;;;;;;;1.73;1.40;;;23.40;53.00;;;;;;5075702;28;20475;-76
2022/07/19 02:26:35;;;;;;;1.80;1.70;;;23.40;53.00;;;;;;5075597;28;20093;-76
2022/07/19 02:29:01;;;;;;;1.63;1.52;;;23.40;52.90;;;;;;5092672;28;20031;-76
2022/07/19 02:31:26;;;;;;;2.42;1.77;;;23.40;52.90;;;;;;5093800;28;20032;-76
2022/07/19 02:33:52;;;;;;;2.30;1.52;;;23.40;53.50;;;;;;5093848;28;20027;-76
2022/07/19 02:36:18;;;;;;;3.78;1.83;;;23.40;52.90;;;;;;5076050;28;20020;-76
2022/07/19 02:38:45;;;;;;;1.63;1.50;;;23.40;52.90;;;;;;5094152;28;20016;-76
2022/07/19 02:41:11;;;;;;;2.13;1.55;;;23.40;52.90;;;;;;5093847;28;20578;-76
2022/07/19 02:43:37;;;;;;;1.88;1.60;;;23.40;52.70;;;;;;5075486;28;20017;-76
2022/07/19 02:46:02;;;;;;;2.35;1.75;;;23.40;52.60;;;;;;5075514;28;20027;-75
2022/07/19 02:48:28;;;;;;;1.90;1.70;;;23.40;52.60;;;;;;5075571;28;20024;-75
2022/07/19 02:50:54;;;;;;;1.95;1.60;;;23.40;52.50;;;;;;5094077;28;20028;-76
2022/07/19 02:53:19;;;;;;;2.15;1.85;;;23.40;52.40;;;;;;5075430;28;20538;-76
2022/07/19 02:55:45;;;;;;;5.00;1.52;;;23.30;52.40;;;;;;5075590;28;20077;-76
2022/07/19 02:58:10;;;;;;;3.72;1.70;;;23.30;52.40;;;;;;5075669;28;20026;-76
2022/07/19 03:00:36;;;;;;;3.38;1.63;;;23.30;52.30;;;;;;5094148;28;20020;-76
2022/07/19 03:05:47;;;;;;;2.13;1.60;;;23.20;52.20;;;;;;5093561;28;20391;-76
2022/07/19 03:08:14;;;;;;;3.97;1.70;;;23.20;52.10;;;;;;5093479;28;20110;-76
2022/07/19 03:10:39;;;;;;;2.17;1.70;;;23.30;52.10;;;;;;5093494;28;20020;-76
2022/07/19 03:13:05;;;;;;;2.95;1.70;;;23.30;52.00;;;;;;5093651;28;20070;-76
2022/07/19 03:15:30;;;;;;;1.73;1.63;;;23.20;52.00;;;;;;5075199;28;20052;-76
2022/07/19 03:17:56;;;;;;;1.63;1.50;;;23.20;51.90;;;;;;5093077;28;20457;-76
2022/07/19 03:20:22;;;;;;;1.75;1.50;;;23.20;51.90;;;;;;5075029;28;20020;-76
2022/07/19 03:22:48;;;;;;;2.35;1.60;;;23.20;51.90;;;;;;5077589;28;20034;-76
2022/07/19 03:25:13;;;;;;;3.15;1.77;;;23.20;51.90;;;;;;5079437;28;20526;-76
2022/07/19 03:27:39;;;;;;;2.05;1.60;;;23.10;51.80;;;;;;5079012;28;20538;-76
2022/07/19 03:30:06;;;;;;;4.28;1.55;;;23.20;51.80;;;;;;5079348;28;20386;-75
2022/07/19 03:32:31;;;;;;;2.15;1.58;;;23.20;51.80;;;;;;5096361;28;20054;-75
2022/07/19 03:34:57;;;;;;;1.90;1.60;;;23.10;51.70;;;;;;5079057;28;20425;-75
2022/07/19 03:37:23;;;;;;;1.80;1.50;;;23.20;51.80;;;;;;5097333;28;20020;-76
2022/07/19 03:39:48;;;;;;;1.83;1.50;;;23.10;51.80;;;;;;5079040;28;20027;-76
2022/07/19 03:42:14;;;;;;;2.80;1.63;;;23.10;51.80;;;;;;5097323;28;20072;-76
2022/07/19 03:44:39;;;;;;;1.83;1.35;;;23.00;51.80;;;;;;5078987;28;20016;-76
2022/07/19 03:47:05;;;;;;;2.60;1.45;;;23.00;51.70;;;;;;5079015;28;20502;-76
2022/07/19 03:49:31;;;;;;;1.45;1.30;;;23.00;51.60;;;;;;5078885;28;20417;-76
2022/07/19 03:51:56;;;;;;;1.58;1.40;;;23.00;51.50;;;;;;5097283;28;20050;-75
2022/07/19 03:57:56;;;;;;;2.38;1.33;;;23.10;51.40;;;;;;5097671;28;20494;-76
2022/07/19 04:00:21;;;;;;;2.08;1.55;;;23.10;51.40;;;;;;5097515;28;20020;-75
2022/07/19 04:02:48;;;;;;;1.30;1.20;;;23.10;51.30;;;;;;5097149;28;20386;-76
2022/07/19 04:05:14;;;;;;;1.88;1.38;;;23.10;51.20;;;;;;5097305;28;20483;-75
2022/07/19 04:07:40;;;;;;;1.85;1.45;;;23.10;51.20;;;;;;5078558;28;20020;-75
2022/07/19 04:10:06;;;;;;;1.40;1.20;;;23.10;51.10;;;;;;5078359;28;20575;-76
2022/07/19 04:12:32;;;;;;;2.65;1.15;;;23.10;51.10;;;;;;5096726;28;20024;-75
2022/07/19 04:14:57;;;;;;;1.45;1.20;;;23.10;51.00;;;;;;5096416;28;20123;-76
2022/07/19 04:17:23;;;;;;;3.88;1.40;;;23.10;51.00;;;;;;5096436;28;20043;-76
2022/07/19 04:19:49;;;;;;;2.67;1.25;;;23.10;50.90;;;;;;5096682;28;20533;-76
2022/07/19 04:22:15;;;;;;;2.58;1.20;;;23.20;51.00;;;;;;5078446;28;20038;-75
2022/07/19 04:24:40;;;;;;;3.50;1.42;;;23.20;51.00;;;;;;5078515;28;20039;-76
2022/07/19 04:27:06;;;;;;;2.15;1.33;;;23.20;51.00;;;;;;5078498;28;20042;-76
2022/07/19 04:29:31;;;;;;;2.15;1.30;;;23.20;50.90;;;;;;5078060;28;20017;-75
2022/07/19 04:31:57;;;;;;;2.88;1.30;;;23.20;50.80;;;;;;5096203;28;20031;-75
2022/07/19 04:34:22;;;;;;;1.27;1.15;;;23.20;50.80;;;;;;5077020;28;20093;-76
2022/07/19 04:36:48;;;;;;;2.25;1.30;;;23.30;50.80;;;;;;5078060;28;20475;-76
2022/07/19 04:39:14;;;;;;;1.48;1.30;;;23.30;50.80;;;;;;5078544;28;20020;-76
2022/07/19 04:41:39;;;;;;;2.05;1.23;;;23.30;51.00;;;;;;5096298;28;20095;-77
2022/07/19 04:44:06;;;;;;;4.13;1.25;;;23.30;51.60;;;;;;5078203;28;20085;-76
2022/07/19 04:46:31;;;;;;;1.50;1.40;;;23.30;51.20;;;;;;5078083;28;20039;-76
2022/07/19 04:48:57;;;;;;;1.83;1.10;;;23.30;51.10;;;;;;5077774;28;20019;-76
2022/07/19 04:51:22;;;;;;;1.45;1.25;;;23.40;51.10;;;;;;5096508;28;20422;-76
2022/07/19 04:53:48;;;;;;;2.47;1.20;;;23.40;50.90;;;;;;5096312;28;20024;-76
2022/07/19 04:56:13;;;;;;;1.40;1.10;;;23.50;50.60;;;;;;5095884;28;20020;-76
2022/07/19 04:58:39;;;;;;;1.30;1.20;;;23.50;50.40;;;;;;5077853;28;20107;-76
2022/07/19 05:01:05;;;;;;;1.20;1.10;;;23.60;50.30;;;;;;5096036;28;20016;-76
2022/07/19 05:03:30;;;;;;;3.88;1.45;;;23.70;50.20;;;;;;5078000;28;20028;-76
2022/07/19 05:05:56;;;;;;;1.80;1.30;;;23.70;50.20;;;;;;5077555;28;20024;-75
2022/07/19 05:08:21;;;;;;;1.30;1.20;;;23.80;50.10;;;;;;5095559;28;20422;-76
2022/07/19 05:10:47;;;;;;;1.83;1.27;;;23.80;50.00;;;;;;5077019;28;20021;-75
2022/07/19 05:13:12;;;;;;;1.95;1.30;;;23.80;50.00;;;;;;5095787;28;20446;-79
2022/07/19 05:15:38;;;;;;;4.25;1.48;;;23.90;50.00;;;;;;5077158;28;20024;-78
2022/07/19 05:18:04;;;;;;;3.22;1.30;;;24.00;50.00;;;;;;5077082;28;20036;-78
2022/07/19 05:20:29;;;;;;;3.78;1.13;;;24.00;49.90;;;;;;5095741;28;20024;-78
2022/07/19 05:22:55;;;;;;;2.10;1.27;;;24.10;49.90;;;;;;5077144;28;20494;-79
2022/07/19 05:25:21;;;;;;;1.52;1.30;;;24.10;49.90;;;;;;5095746;28;20032;-79
2022/07/19 05:27:47;;;;;;;4.78;1.20;;;24.10;49.80;;;;;;5077183;28;20024;-79
2022/07/19 05:30:12;;;;;;;1.40;1.30;;;24.20;49.70;;;;;;5077003;28;20087;-79
2022/07/19 05:32:38;;;;;;;4.95;1.30;;;24.20;49.70;;;;;;5095394;28;20058;-79
2022/07/19 05:35:04;;;;;;;4.97;2.15;;;24.30;49.70;;;;;;5076942;28;20024;-79
2022/07/19 05:37:29;;;;;;;2.15;1.50;;;24.30;50.30;;;;;;5077463;28;20020;-79
2022/07/19 05:39:55;;;;;;;2.90;1.38;;;24.30;49.60;;;;;;5076958;28;20039;-79
2022/07/19 05:42:21;;;;;;;3.22;1.90;;;24.30;49.50;;;;;;5077187;28;20110;-78
2022/07/19 05:44:46;;;;;;;2.65;1.67;;;24.40;49.50;;;;;;5094386;28;20098;-79
2022/07/19 05:47:12;;;;;;;2.35;1.92;;;24.40;49.40;;;;;;5076476;28;20024;-78
2022/07/19 05:49:37;;;;;;;4.45;2.40;;;24.40;49.30;;;;;;5076083;28;20116;-79
2022/07/19 05:52:03;;;;;;;2.13;1.60;;;24.50;49.30;;;;;;5077173;28;20470;-78
2022/07/19 05:54:29;;;;;;;2.28;1.75;;;24.50;49.20;;;;;;5076832;28;20379;-79
2022/07/19 05:56:55;;;;;;;3.10;1.80;;;24.50;49.20;;;;;;5076279;28;20020;-78
2022/07/19 05:59:22;;;;;;;3.05;1.90;;;24.60;49.20;;;;;;5076584;28;20429;-79
2022/07/19 06:01:50;;;;;;;3.90;2.20;;;24.60;49.20;;;;;;5076484;28;20020;-79
2022/07/19 06:04:16;;;;;;;3.90;2.58;;;24.60;49.20;;;;;;5094577;28;20478;-78
2022/07/19 06:06:42;;;;;;;3.15;2.20;;;24.70;49.20;;;;;;5076144;28;20115;-78
2022/07/19 06:09:09;;;;;;;4.68;2.30;;;24.70;49.10;;;;;;5094176;28;20028;-78
2022/07/19 06:11:36;;;;;;;3.85;2.33;;;24.70;49.10;;;;;;5076383;28;20375;-78
2022/07/19 06:14:02;;;;;;;3.85;2.42;;;24.80;49.10;;;;;;5075847;28;20039;-79
2022/07/19 06:16:28;;;;;;;2.78;2.10;;;24.80;49.10;;;;;;5076099;28;20027;-80
2022/07/19 06:18:54;;;;;;;3.45;2.03;;;24.80;49.10;;;;;;5076638;28;20040;-81
2022/07/19 06:21:20;;;;;;;4.10;2.10;;;24.90;49.20;;;;;;5076440;28;20468;-80
2022/07/19 06:23:46;;;;;;;5.80;2.47;;;24.90;49.20;;;;;;5092446;28;20012;-78
2022/07/19 06:26:12;;;;;;;3.17;2.40;;;24.90;49.20;;;;;;5075650;28;20129;-77
2022/07/19 06:28:39;;;;;;;4.53;2.97;;;24.90;49.30;;;;;;5090427;28;20482;-78
2022/07/19 06:31:06;;;;;;;4.20;2.45;;;25.00;49.30;;;;;;5093601;28;20060;-78
2022/07/19 06:33:32;;;;;;;4.35;2.70;;;25.00;49.40;;;;;;5092458;28;20020;-78
2022/07/19 06:35:57;;;;;;;4.80;2.90;;;25.00;49.30;;;;;;5074989;28;20158;-77
2022/07/19 06:38:23;;;;;;;5.03;2.70;;;25.00;49.40;;;;;;5075387;28;20424;-78
2022/07/19 06:40:49;;;;;;;4.75;2.70;;;25.10;49.40;;;;;;5093742;28;20020;-77
2022/07/19 06:43:14;;;;;;;5.60;2.72;;;25.10;49.40;;;;;;5093124;28;20046;-77
2022/07/19 06:45:41;;;;;;;4.47;2.83;;;25.10;49.30;;;;;;5074724;28;20384;-77
2022/07/19 06:48:07;;;;;;;6.05;2.80;;;25.20;49.40;;;;;;5093159;28;20024;-78
2022/07/19 06:50:32;;;;;;;4.15;2.70;;;25.20;49.40;;;;;;5074777;28;20093;-78
2022/07/19 06:52:58;;;;;;;3.33;2.63;;;25.20;49.40;;;;;;5092890;28;20062;-78
2022/07/19 06:55:24;;;;;;;3.88;2.67;;;25.30;49.40;;;;;;5092394;28;20081;-78
2022/07/19 06:57:50;;;;;;;3.75;2.58;;;25.40;49.50;;;;;;5092795;28;20480;-78
2022/07/19 07:00:16;;;;;;;5.22;2.85;;;25.40;49.60;;;;;;5092821;28;20027;-78
2022/07/19 07:02:42;;;;;;;7.07;3.35;;;25.40;49.60;;;;;;5074796;28;20053;-78
2022/07/19 07:05:09;;;;;;;5.78;2.72;;;25.50;49.70;;;;;;5074634;28;20367;-78
2022/07/19 07:07:35;;;;;;;4.32;2.70;;;25.60;49.70;;;;;;5092580;28;20577;-78
2022/07/19 07:10:02;;;;;;;3.15;2.33;;;25.60;49.60;;;;;;5093230;28;20036;-78
2022/07/19 07:12:29;;;;;;;6.65;2.60;;;25.60;49.60;;;;;;5091682;28;20453;-79
2022/07/19 07:14:55;;;;;;;4.00;2.75;;;25.70;49.60;;;;;;5091374;28;20032;-78
2022/07/19 07:17:21;;;;;;;6.35;2.58;;;25.70;49.50;;;;;;5074526;28;20030;-78
2022/07/19 07:19:47;;;;;;;5.65;2.55;;;25.80;50.20;;;;;;5092985;28;20051;-77
2022/07/19 07:22:13;;;;;;;6.63;2.97;;;25.90;49.60;;;;;;5092476;28;20020;-77
2022/07/19 07:24:39;;;;;;;5.28;2.67;;;25.90;49.60;;;;;;5074425;28;20542;-77
2022/07/19 07:27:05;;;;;;;4.85;2.60;;;26.00;49.50;;;;;;5074318;28;20059;-77
2022/07/19 07:29:31;;;;;;;3.60;2.50;;;26.00;49.40;;;;;;5092659;28;20387;-78
2022/07/19 07:31:56;;;;;;;3.70;2.78;;;26.10;49.40;;;;;;5074281;28;20474;-79
2022/07/19 07:34:22;;;;;;;4.05;2.50;;;26.10;49.50;;;;;;5074915;28;20391;-79
2022/07/19 07:40:10;;;;;;;8.80;2.53;;;26.30;49.50;;;;;;5092568;28;20489;-79
2022/07/19 07:42:36;;;;;;;7.68;2.25;;;26.40;49.50;;;;;;5091083;28;20013;-78
2022/07/19 07:45:02;;;;;;;5.68;2.60;;;26.40;49.50;;;;;;5092398;28;20475;-78
2022/07/19 07:47:28;;;;;;;3.40;2.35;;;26.50;49.50;;;;;;5092312;28;20036;-79
2022/07/19 07:49:53;;;;;;;5.78;2.40;;;26.60;49.60;;;;;;5074053;28;20024;-78
2022/07/19 07:52:19;;;;;;;3.83;2.30;;;26.70;49.50;;;;;;5074433;28;20028;-76
2022/07/19 07:54:45;;;;;;;3.65;2.50;;;26.70;49.30;;;;;;5092181;28;20020;-77
2022/07/19 07:57:11;;;;;;;5.78;2.70;;;26.80;49.20;;;;;;5092025;28;20031;-77
2022/07/19 07:59:36;;;;;;;4.00;2.63;;;26.90;49.10;;;;;;5073895;28;20031;-77
2022/07/19 08:02:02;;;;;;;4.00;2.40;;;26.90;49.00;;;;;;5073853;28;20107;-77
2022/07/19 08:04:28;;;;;;;4.47;2.28;;;27.00;49.00;;;;;;5092272;28;20035;-77
2022/07/19 08:06:54;;;;;;;3.30;2.22;;;27.10;49.00;;;;;;5074130;28;20066;-78
2022/07/19 08:09:19;;;;;;;7.85;2.40;;;27.20;49.00;;;;;;5094959;28;20598;-78
2022/07/19 08:11:45;;;;;;;5.07;1.88;;;27.30;48.80;;;;;;5077958;28;20038;-77
2022/07/19 08:14:10;;;;;;;5.70;2.20;;;27.40;48.60;;;;;;5077665;28;20480;-77
2022/07/19 08:16:36;;;;;;;3.03;1.90;;;27.50;48.50;;;;;;5077594;28;20012;-77
2022/07/19 08:19:03;;;;;;;4.85;1.77;;;27.60;48.30;;;;;;5095911;28;20040;-77
2022/07/19 08:21:29;;;;;;;2.90;1.92;;;27.70;48.20;;;;;;5077629;28;20104;-77
2022/07/19 08:23:55;;;;;;;4.63;1.75;;;27.70;47.90;;;;;;5077683;28;20444;-77
2022/07/19 08:26:21;;;;;;;3.83;1.75;;;27.80;47.50;;;;;;5095755;28;20190;-77
2022/07/19 08:28:47;;;;;;;2.38;1.70;;;27.90;47.10;;;;;;5096297;28;20149;-78
2022/07/19 08:31:14;;;;;;;3.83;1.73;;;28.00;46.70;;;;;;5095713;28;20027;-77
2022/07/19 08:33:40;;;;;;;3.63;1.70;;;28.10;46.20;;;;;;5094689;28;20062;-77
2022/07/19 08:36:07;;;;;;;3.03;1.70;;;28.20;45.90;;;;;;5094331;28;20456;-78
2022/07/19 08:38:32;;;;;;;2.20;1.70;;;28.30;45.60;;;;;;5078544;28;20030;-79
2022/07/19 08:41:01;;;;;;;3.42;1.90;;;28.40;45.40;;;;;;5095838;28;20099;-80
2022/07/19 08:43:27;;;;;;;2.60;1.58;;;28.50;45.10;;;;;;5095057;28;20024;-79
2022/07/19 08:45:53;;;;;;;5.13;1.70;;;28.60;44.90;;;;;;5078587;28;20024;-78
2022/07/19 08:48:20;;;;;;;3.35;1.67;;;28.60;44.40;;;;;;5096464;28;20084;-79
2022/07/19 08:50:47;;;;;;;2.97;1.80;;;28.80;44.30;;;;;;5094625;28;20107;-77
2022/07/19 08:53:15;;;;;;;3.28;1.80;;;28.80;44.10;;;;;;5095030;28;20102;-78
2022/07/19 08:55:41;;;;;;;2.40;1.70;;;29.00;44.00;;;;;;5093505;28;20020;-78
2022/07/19 08:58:06;;;;;;;3.10;1.45;;;29.10;43.70;;;;;;5076704;28;20434;-78
2022/07/19 09:00:35;;;;;;;2.15;1.50;;;29.20;43.40;;;;;;5076772;28;20403;-77
2022/07/19 09:03:07;;;;;;;2.20;1.70;;;29.20;43.00;;;;;;5093656;28;20551;-77
2022/07/19 09:05:34;;;;;;;4.50;1.63;;;29.30;42.70;;;;;;5094749;28;20031;-77
2022/07/19 09:08:10;;;;;;;4.68;1.75;;;29.30;42.50;;;;;;5076747;28;20024;-78
2022/07/19 09:10:40;;;;;;;2.33;1.60;;;29.50;42.40;;;;;;5093947;28;20103;-78
2022/07/19 09:13:11;;;;;;;5.10;1.70;;;29.50;42.10;;;;;;5094964;28;20020;-78
2022/07/19 09:15:49;;;;;;;3.60;1.70;;;29.60;42.00;;;;;;5094990;28;20467;-78
2022/07/19 09:18:24;;;;;;;3.17;1.38;;;29.70;42.00;;;;;;5094816;28;20040;-78
2022/07/19 09:20:52;;;;;;;5.60;1.70;;;29.80;41.70;;;;;;5093440;28;20021;-78
2022/07/19 09:23:18;;;;;;;3.08;1.50;;;29.80;41.50;;;;;;5093427;28;20020;-78
2022/07/19 09:29:19;;;;;;;2.10;1.45;;;30.00;41.40;;;;;;5094749;28;20031;-79
2022/07/19 09:32:15;;;;;;;1.98;1.60;;;30.00;41.50;;;;;;5094894;28;20035;-78
2022/07/19 09:35:03;;;;;;;2.42;1.58;;;30.10;41.50;;;;;;5093120;28;20044;-78
2022/07/19 09:37:34;;;;;;;5.13;1.80;;;30.20;41.50;;;;;;5092914;28;20581;-78
2022/07/19 09:40:03;;;;;;;2.88;1.48;;;30.30;41.40;;;;;;5093233;28;20471;-78
2022/07/19 09:42:43;;;;;;;4.00;1.60;;;30.40;41.40;;;;;;5076094;28;20044;-78
2022/07/19 09:45:14;;;;;;;3.05;1.60;;;30.50;41.30;;;;;;5092677;28;20476;-78
2022/07/19 09:47:42;;;;;;;4.22;1.92;;;30.60;41.40;;;;;;5075927;28;20111;-78
2022/07/19 09:50:16;;;;;;;2.30;1.55;;;30.60;41.40;;;;;;5094410;28;20095;-78
2022/07/19 09:52:43;;;;;;;3.15;1.90;;;30.70;41.30;;;;;;5092866;28;20012;-78
2022/07/19 09:55:10;;;;;;;2.78;1.50;;;30.80;41.30;;;;;;5092753;28;20074;-78
2022/07/19 09:57:40;;;;;;;5.70;2.17;;;30.90;41.30;;;;;;5075369;28;20111;-78
2022/07/19 10:00:08;;;;;;;3.28;1.80;;;31.00;41.10;;;;;;5094344;28;20479;-78
2022/07/19 10:02:36;;;;;;;2.25;1.60;;;31.10;41.10;;;;;;5092781;28;20016;-78
2022/07/19 10:05:03;;;;;;;3.10;1.90;;;31.20;40.90;;;;;;5092783;28;20020;-78
2022/07/19 10:07:31;;;;;;;3.13;1.70;;;31.30;40.80;;;;;;5092622;28;20387;-78
2022/07/19 10:10:01;;;;;;;2.78;1.83;;;31.40;40.70;;;;;;5075497;28;20020;-78
2022/07/19 10:12:28;;;;;;;2.78;1.60;;;31.50;40.50;;;;;;5094038;28;20505;-78
2022/07/19 10:14:55;;;;;;;3.90;1.80;;;31.50;40.30;;;;;;5093761;28;20024;-77
2022/07/19 10:17:30;;;;;;;2.38;1.55;;;31.60;40.20;;;;;;5093686;28;20028;-77
2022/07/19 10:19:57;;;;;;;3.65;1.98;;;31.70;40.20;;;;;;5092732;28;20074;-77
2022/07/19 10:22:25;;;;;;;2.67;1.90;;;31.70;40.00;;;;;;5092111;28;20024;-77
2022/07/19 10:24:59;;;;;;;3.80;1.75;;;31.70;40.10;;;;;;5092220;28;20455;-77
2022/07/19 10:27:25;;;;;;;3.40;1.70;;;31.70;40.20;;;;;;5075219;28;20514;-76
2022/07/19 10:30:11;;;;;;;3.33;1.80;;;31.80;40.40;;;;;;5074985;28;20059;-77
2022/07/19 10:32:39;;;;;;;3.40;1.75;;;31.90;40.50;;;;;;5060863;28;20032;-77
2022/07/19 10:35:18;;;;;;;4.20;1.83;;;32.00;40.70;;;;;;5091965;28;20024;-78
2022/07/19 10:37:49;;;;;;;4.88;1.70;;;32.10;40.80;;;;;;5074920;28;20047;-77
2022/07/19 10:40:36;;;;;;;3.58;1.98;;;32.20;40.80;;;;;;5074900;28;20467;-77
2022/07/19 10:43:12;;;;;;;2.20;1.50;;;32.40;40.70;;;;;;5092000;28;20033;-77
2022/07/19 10:45:59;;;;;;;6.03;1.67;;;32.40;40.10;;;;;;5091888;28;20035;-77
2022/07/19 10:48:48;;;;;;;2.70;1.55;;;32.50;39.80;;;;;;5091669;28;20064;-76
2022/07/19 10:51:33;;;;;;;3.47;1.92;;;32.60;39.50;;;;;;5091746;28;20024;-76
2022/07/19 10:54:06;;;;;;;3.78;1.63;;;32.60;39.50;;;;;;5091810;28;20467;-77
2022/07/19 10:56:34;;;;;;;4.32;1.90;;;32.70;39.40;;;;;;5074831;28;20110;-78
2022/07/19 10:59:03;;;;;;;4.13;1.80;;;32.80;39.20;;;;;;5074918;28;20024;-77
2022/07/19 11:01:33;;;;;;;6.85;1.83;;;32.90;39.00;;;;;;5092119;28;20518;-77
2022/07/19 11:04:26;;;;;;;4.00;1.52;;;33.00;38.70;;;;;;5074970;28;20027;-77
2022/07/19 11:07:13;;;;;;;4.30;1.60;;;33.00;38.50;;;;;;5066464;28;20097;-77
2022/07/19 11:09:51;;;;;;;2.58;1.70;;;33.10;38.50;;;;;;5074672;28;20020;-77
2022/07/19 11:12:21;;;;;;;2.75;1.80;;;33.20;38.40;;;;;;5091662;28;20051;-77
2022/07/19 11:14:47;;;;;;;3.45;2.03;;;33.30;38.20;;;;;;5074697;28;20433;-78
2022/07/19 11:17:12;;;;;;;6.53;1.55;;;33.40;37.90;;;;;;5092565;28;20016;-78
2022/07/19 11:19:59;;;;;;;2.30;1.63;;;33.50;37.90;;;;;;5075303;28;20028;-80
2022/07/19 11:22:25;;;;;;;2.35;1.60;;;33.70;37.80;;;;;;5075235;28;20024;-79
2022/07/19 11:24:50;;;;;;;2.38;1.52;;;33.70;37.20;;;;;;5075317;28;20024;-79
2022/07/19 11:27:16;;;;;;;2.35;1.60;;;33.80;37.10;;;;;;5093130;28;20423;-80
2022/07/19 11:29:53;;;;;;;3.33;1.70;;;33.90;37.10;;;;;;5093190;28;20043;-80
2022/07/19 11:32:19;;;;;;;3.13;1.70;;;33.90;36.60;;;;;;5075143;28;20058;-80
2022/07/19 11:35:01;;;;;;;4.10;1.50;;;34.00;36.60;;;;;;5092971;28;20495;-80
2022/07/19 11:37:34;;;;;;;4.07;1.70;;;34.10;36.30;;;;;;5091816;28;20122;-80
2022/07/19 11:40:00;;;;;;;3.28;1.75;;;34.20;36.20;;;;;;5091615;28;20436;-80
2022/07/19 11:42:30;;;;;;;2.55;1.27;;;34.30;36.00;;;;;;5093244;28;20021;-80
2022/07/19 11:44:56;;;;;;;2.40;1.55;;;34.30;35.90;;;;;;5078840;28;20139;-80
2022/07/19 11:47:21;;;;;;;1.73;1.58;;;34.40;35.90;;;;;;5078961;28;20111;-80
2022/07/19 11:49:47;;;;;;;4.20;1.65;;;34.50;35.80;;;;;;5097114;28;20035;-79
2022/07/19 11:52:12;;;;;;;3.42;1.50;;;34.50;35.70;;;;;;5078823;28;20054;-79
2022/07/19 11:54:38;;;;;;;3.67;1.38;;;34.60;35.60;;;;;;5079273;28;20165;-79
2022/07/19 11:57:04;;;;;;;3.50;1.85;;;34.70;35.50;;;;;;5082231;28;20039;-78
2022/07/19 11:59:30;;;;;;;3.72;1.23;;;34.80;35.40;;;;;;5082119;28;20047;-80
2022/07/19 12:01:57;;;;;;;2.83;1.42;;;34.90;35.40;;;;;;5081963;28;20031;-79
2022/07/19 12:04:23;;;;;;;2.67;1.40;;;35.00;35.30;;;;;;5079528;28;20020;-79
2022/07/19 12:06:52;;;;;;;2.60;1.60;;;35.10;35.20;;;;;;5078447;28;20065;-79
2022/07/19 12:09:32;;;;;;;2.85;1.77;;;35.10;34.90;;;;;;5095612;28;20026;-79
2022/07/19 12:11:58;;;;;;;3.13;1.70;;;35.20;34.70;;;;;;5078440;28;20024;-80
2022/07/19 12:14:33;;;;;;;1.80;1.58;;;35.30;34.80;;;;;;5096532;28;20545;-79
2022/07/19 12:17:19;;;;;;;2.50;1.75;;;35.30;34.50;;;;;;5095474;28;20047;-79
2022/07/19 12:19:52;;;;;;;5.07;1.40;;;35.40;34.60;;;;;;5095290;28;20503;-79
2022/07/19 12:22:32;;;;;;;2.40;1.30;;;35.50;34.50;;;;;;5094437;28;20060;-80
2022/07/19 12:24:58;;;;;;;2.00;1.52;;;35.60;34.30;;;;;;5095147;28;20086;-80
2022/07/19 12:27:27;;;;;;;2.97;1.60;;;35.70;34.20;;;;;;5078295;28;20032;-80
2022/07/19 12:29:55;;;;;;;2.42;1.40;;;35.80;34.20;;;;;;5078657;28;20036;-80
2022/07/19 12:32:31;;;;;;;2.40;1.40;;;35.90;34.10;;;;;;5078214;28;20024;-79
2022/07/19 12:35:02;;;;;;;5.18;1.42;;;35.90;33.80;;;;;;5095051;28;20054;-80
2022/07/19 12:37:31;;;;;;;1.88;1.55;;;36.00;33.70;;;;;;5077733;28;20016;-79
2022/07/19 12:40:05;;;;;;;2.10;1.60;;;36.00;33.50;;;;;;5095599;28;20016;-78
2022/07/19 12:43:03;;;;;;;2.13;1.42;;;36.10;33.30;;;;;;5094355;28;20020;-78
2022/07/19 12:45:31;;;;;;;3.85;1.25;;;36.20;33.30;;;;;;5094359;28;20095;-79
2022/07/19 12:47:57;;;;;;;2.13;1.40;;;36.30;33.40;;;;;;5095487;28;20028;-79
2022/07/19 12:50:27;;;;;;;2.00;1.70;;;36.40;33.40;;;;;;5095377;28;20035;-78
2022/07/19 12:52:55;;;;;;;3.28;1.38;;;36.50;33.30;;;;;;5095535;28;20033;-78
2022/07/19 12:55:22;;;;;;;3.78;1.33;;;36.50;33.30;;;;;;5093774;28;20024;-78
2022/07/19 12:57:49;;;;;;;3.67;1.60;;;36.70;33.30;;;;;;5093254;28;20456;-78
2022/07/19 13:00:16;;;;;;;2.15;1.80;;;36.80;33.30;;;;;;5094009;28;20506;-78
2022/07/19 13:02:42;;;;;;;2.45;1.70;;;36.90;33.20;;;;;;5094356;28;20016;-78